createdAt,value
2022-10-13T00:01:32.956Z,14.77
2022-10-13T00:04:01.020Z,10.48
2022-10-13T00:06:29.212Z,10.85
2022-10-13T00:08:57.502Z,17.08
2022-10-13T00:11:30.184Z,16.05
2022-10-13T00:14:02.017Z,10.10
2022-10-13T00:16:32.327Z,15.35
2022-10-13T00:19:00.581Z,8.40
2022-10-13T00:21:29.908Z,13.60
2022-10-13T00:23:58.541Z,11.85
2022-10-13T00:26:28.281Z,12.63
2022-10-13T00:28:57.655Z,10.90
2022-10-13T00:31:28.910Z,11.85
2022-10-13T00:33:58.958Z,10.95
2022-10-13T00:36:27.291Z,12.15
2022-10-13T00:38:56.145Z,9.93
2022-10-13T00:41:24.371Z,10.23
2022-10-13T00:43:59.914Z,12.20
2022-10-13T00:46:31.225Z,10.73
2022-10-13T00:49:05.987Z,10.50
2022-10-13T00:51:40.960Z,10.13
2022-10-13T00:54:14.696Z,14.25
2022-10-13T00:56:43.247Z,15.23
2022-10-13T00:59:23.081Z,15.77
2022-10-13T01:01:52.330Z,15.87
2022-10-13T01:04:24.389Z,10.40
2022-10-13T01:06:53.801Z,11.02
2022-10-13T01:09:21.939Z,13.57
2022-10-13T01:12:06.821Z,11.68
2022-10-13T01:14:45.785Z,11.30
2022-10-13T01:17:32.091Z,11.43
2022-10-13T01:20:38.461Z,10.90
2022-10-13T01:23:27.058Z,7.65
2022-10-13T01:26:24.706Z,10.65
2022-10-13T01:29:21.607Z,11.67
2022-10-13T01:32:03.376Z,12.77
2022-10-13T01:34:40.703Z,10.88
2022-10-13T01:37:21.127Z,11.35
2022-10-13T01:40:00.632Z,15.50
2022-10-13T01:42:37.158Z,8.68
2022-10-13T01:45:12.905Z,15.63
2022-10-13T01:47:44.837Z,10.90
2022-10-13T01:50:17.324Z,13.82
2022-10-13T01:52:47.956Z,12.40
2022-10-13T01:55:16.058Z,8.82
2022-10-13T01:57:46.332Z,17.52
2022-10-13T02:00:18.823Z,12.63
2022-10-13T02:03:06.462Z,13.93
2022-10-13T02:05:49.077Z,9.87
2022-10-13T02:08:27.324Z,10.77
2022-10-13T02:11:11.971Z,11.90
2022-10-13T02:13:47.873Z,13.87
2022-10-13T02:16:23.976Z,11.52
2022-10-13T02:18:54.347Z,19.55
2022-10-13T02:21:22.880Z,14.70
2022-10-13T02:23:52.597Z,11.40
2022-10-13T02:26:22.861Z,14.60
2022-10-13T02:28:59.123Z,11.68
2022-10-13T02:31:27.347Z,15.83
2022-10-13T02:33:56.919Z,11.30
2022-10-13T02:36:25.629Z,12.33
2022-10-13T02:38:53.811Z,12.30
2022-10-13T02:41:21.966Z,17.53
2022-10-13T02:43:52.468Z,10.93
2022-10-13T02:46:23.746Z,15.50
2022-10-13T02:48:51.914Z,16.10
2022-10-13T02:51:21.559Z,15.13
2022-10-13T02:53:49.733Z,12.30
2022-10-13T02:56:18.855Z,13.50
2022-10-13T02:58:46.986Z,12.13
2022-10-13T03:01:16.676Z,10.90
2022-10-13T03:03:44.929Z,15.53
2022-10-13T03:06:13.067Z,11.00
2022-10-13T03:08:42.691Z,13.10
2022-10-13T03:11:10.873Z,12.33
2022-10-13T03:13:39.183Z,14.80
2022-10-13T03:16:08.290Z,10.95
2022-10-13T03:18:36.480Z,15.50
2022-10-13T03:21:07.395Z,14.33
2022-10-13T03:23:38.418Z,9.07
2022-10-13T03:26:08.248Z,13.23
2022-10-13T03:28:36.572Z,16.30
2022-10-13T03:31:07.859Z,11.90
2022-10-13T03:33:36.219Z,11.43
2022-10-13T03:36:07.466Z,14.80
2022-10-13T03:38:39.281Z,16.33
2022-10-13T03:41:14.284Z,10.47
2022-10-13T03:43:44.102Z,10.87
2022-10-13T03:46:18.349Z,10.85
2022-10-13T03:48:48.337Z,16.50
2022-10-13T03:51:19.897Z,12.87
2022-10-13T03:53:52.121Z,18.20
2022-10-13T03:56:24.986Z,17.23
2022-10-13T03:58:56.366Z,18.13
2022-10-13T04:01:30.169Z,19.38
2022-10-13T04:04:02.139Z,14.68
2022-10-13T04:06:31.542Z,13.00
2022-10-13T04:09:00.070Z,15.05
2022-10-13T04:11:30.456Z,14.50
2022-10-13T04:13:59.347Z,13.07
2022-10-13T04:16:30.584Z,15.57
2022-10-13T04:19:04.367Z,14.73
2022-10-13T04:21:35.623Z,16.95
2022-10-13T04:24:05.311Z,15.80
2022-10-13T04:26:37.027Z,17.90
2022-10-13T04:29:13.385Z,16.10
2022-10-13T04:31:43.813Z,12.73
2022-10-13T04:34:12.227Z,20.20
2022-10-13T04:36:40.732Z,16.00
2022-10-13T04:39:09.017Z,13.20
2022-10-13T04:41:38.527Z,14.95
2022-10-13T04:44:06.766Z,14.82
2022-10-13T04:46:34.833Z,12.23
2022-10-13T04:49:02.940Z,16.57
2022-10-13T04:51:34.006Z,16.80
2022-10-13T04:54:05.473Z,13.82
2022-10-13T04:56:34.526Z,18.13
2022-10-13T04:59:05.859Z,14.43
2022-10-13T05:01:35.887Z,14.57
2022-10-13T05:04:07.840Z,15.73
2022-10-13T05:07:05.350Z,16.40
2022-10-13T05:09:29.834Z,17.40
2022-10-13T05:11:58.443Z,15.70
2022-10-13T05:14:27.974Z,18.00
2022-10-13T05:16:56.027Z,16.43
2022-10-13T05:19:24.213Z,13.70
2022-10-13T05:21:53.293Z,13.47
2022-10-13T05:24:30.868Z,13.53
2022-10-13T05:26:59.181Z,20.47
2022-10-13T05:29:28.944Z,12.37
2022-10-13T05:31:57.234Z,15.00
2022-10-13T05:34:25.905Z,17.10
2022-10-13T05:36:56.168Z,11.80
2022-10-13T05:39:24.368Z,19.13
2022-10-13T05:41:52.553Z,14.38
2022-10-13T05:44:22.879Z,12.02
2022-10-13T05:46:58.501Z,14.57
2022-10-13T05:49:26.747Z,12.17
2022-10-13T05:51:59.623Z,15.90
2022-10-13T05:54:31.874Z,18.93
2022-10-13T05:57:07.616Z,16.50
2022-10-13T05:59:42.713Z,18.35
2022-10-13T06:02:17.100Z,21.27
2022-10-13T06:04:51.404Z,17.70
2022-10-13T06:07:20.921Z,16.67
2022-10-13T06:09:49.963Z,20.60
2022-10-13T06:12:18.385Z,17.90
2022-10-13T06:14:47.233Z,17.33
2022-10-13T06:17:18.202Z,19.63
2022-10-13T06:19:46.373Z,21.20
2022-10-13T06:22:14.615Z,24.17
2022-10-13T06:24:43.335Z,44.80
2022-10-13T06:27:14.189Z,32.03
2022-10-13T06:29:42.402Z,30.30
2022-10-13T06:32:10.529Z,18.00
2022-10-13T06:34:40.087Z,19.50
2022-10-13T06:37:08.260Z,23.40
2022-10-13T06:39:36.612Z,21.63
2022-10-13T06:42:05.561Z,18.75
2022-10-13T06:44:39.143Z,19.38
2022-10-13T06:47:07.786Z,18.97
2022-10-13T06:49:36.104Z,22.35
2022-10-13T06:52:06.526Z,18.52
2022-10-13T06:54:35.829Z,17.90
2022-10-13T06:57:06.971Z,16.15
2022-10-13T06:59:35.173Z,17.40
2022-10-13T07:02:03.317Z,20.63
2022-10-13T07:04:31.572Z,21.60
2022-10-13T07:07:00.304Z,18.67
2022-10-13T07:09:30.414Z,18.60
2022-10-13T07:11:58.530Z,27.05
2022-10-13T07:14:26.842Z,23.48
2022-10-13T07:16:55.024Z,20.30
2022-10-13T07:19:23.358Z,20.23
2022-10-13T07:21:51.742Z,23.20
2022-10-13T07:24:21.380Z,20.40
2022-10-13T07:26:50.929Z,20.60
2022-10-13T07:29:19.357Z,28.45
2022-10-13T07:31:47.637Z,17.73
2022-10-13T07:34:16.861Z,21.45
2022-10-13T07:36:45.290Z,22.77
2022-10-13T07:39:13.562Z,19.42
2022-10-13T07:41:42.117Z,18.27
2022-10-13T07:44:11.583Z,27.08
2022-10-13T07:46:40.142Z,19.58
2022-10-13T07:49:11.134Z,20.92
2022-10-13T07:51:42.018Z,20.95
2022-10-13T07:54:10.239Z,21.63
2022-10-13T07:56:38.810Z,18.17
2022-10-13T07:59:09.051Z,19.02
2022-10-13T08:01:38.573Z,19.92
2022-10-13T08:04:06.928Z,22.42
2022-10-13T08:06:35.150Z,19.17
2022-10-13T08:09:04.494Z,19.25
2022-10-13T08:11:32.944Z,22.67
2022-10-13T08:14:01.700Z,23.33
2022-10-13T08:16:30.602Z,23.50
2022-10-13T08:19:01.320Z,18.65
2022-10-13T08:21:56.812Z,19.60
2022-10-13T08:24:19.479Z,25.50
2022-10-13T08:26:48.543Z,25.85
2022-10-13T08:29:21.976Z,21.60
2022-10-13T08:31:51.684Z,17.95
2022-10-13T08:34:22.251Z,28.35
2022-10-13T08:36:52.969Z,22.17
2022-10-13T08:39:22.026Z,22.05
2022-10-13T08:41:51.139Z,24.05
2022-10-13T08:45:10.947Z,26.92
2022-10-13T08:47:28.250Z,18.90
2022-10-13T08:50:02.274Z,21.90
2022-10-13T08:52:46.753Z,18.00
2022-10-13T08:55:26.028Z,23.58
2022-10-13T08:57:54.669Z,25.67
2022-10-13T09:00:27.666Z,25.08
2022-10-13T09:03:09.601Z,26.02
2022-10-13T09:05:53.518Z,26.50
2022-10-13T09:08:23.694Z,28.52
2022-10-13T09:10:53.169Z,25.35
2022-10-13T09:13:23.696Z,27.20
2022-10-13T09:15:53.179Z,22.70
2022-10-13T09:18:33.890Z,23.30
2022-10-13T09:21:21.822Z,21.83
2022-10-13T09:23:54.018Z,22.88
2022-10-13T09:26:25.794Z,30.20
2022-10-13T09:28:54.497Z,24.48
2022-10-13T09:31:27.963Z,27.00
2022-10-13T09:34:02.554Z,21.98
2022-10-13T09:36:32.223Z,27.15
2022-10-13T09:39:13.004Z,25.35
2022-10-13T09:41:43.531Z,23.80
2022-10-13T09:44:16.717Z,28.63
2022-10-13T09:46:53.268Z,23.60
2022-10-13T09:49:44.609Z,25.33
2022-10-13T09:52:25.090Z,22.98
2022-10-13T09:54:57.411Z,33.60
2022-10-13T09:57:41.773Z,19.67
2022-10-13T10:00:21.359Z,21.67
2022-10-13T10:02:57.119Z,24.88
2022-10-13T10:05:29.310Z,24.23
2022-10-13T10:08:12.235Z,23.38
2022-10-13T10:10:42.664Z,18.52
2022-10-13T10:13:13.596Z,25.10
2022-10-13T10:15:56.947Z,22.02
2022-10-13T10:18:39.634Z,22.60
2022-10-13T10:21:23.326Z,23.58
2022-10-13T10:24:00.886Z,25.23
2022-10-13T10:26:46.943Z,25.50
2022-10-13T10:29:44.861Z,27.55
2022-10-13T10:32:29.450Z,22.45
2022-10-13T10:35:10.889Z,21.20
2022-10-13T10:38:03.637Z,26.10
2022-10-13T10:40:48.838Z,26.45
2022-10-13T10:43:45.659Z,30.15
2022-10-13T10:46:20.879Z,26.27
2022-10-13T10:48:53.868Z,22.77
2022-10-13T10:51:29.152Z,25.13
2022-10-13T10:54:18.096Z,34.35
2022-10-13T10:56:54.550Z,22.30
2022-10-13T10:59:42.956Z,22.23
2022-10-13T11:02:37.745Z,23.48
2022-10-13T11:05:06.864Z,22.30
2022-10-13T11:07:58.629Z,23.05
2022-10-13T11:10:27.382Z,25.95
2022-10-13T11:13:20.902Z,25.77
2022-10-13T11:15:49.067Z,23.27
2022-10-13T11:19:08.685Z,25.60
2022-10-13T11:22:12.891Z,23.33
2022-10-13T11:25:00.945Z,23.67
2022-10-13T11:27:45.373Z,23.77
2022-10-13T11:30:49.999Z,25.73
2022-10-13T11:33:56.573Z,25.40
2022-10-13T11:36:52.668Z,21.15
2022-10-13T11:40:04.684Z,22.67
2022-10-13T11:43:05.155Z,25.63
2022-10-13T11:46:16.018Z,18.55
2022-10-13T11:49:21.315Z,25.08
2022-10-13T11:52:26.620Z,19.48
2022-10-13T11:55:03.774Z,21.83
2022-10-13T11:57:32.845Z,24.92
2022-10-13T12:00:06.309Z,21.00
2022-10-13T12:02:54.559Z,22.92
2022-10-13T12:05:26.059Z,28.02
2022-10-13T12:07:57.948Z,19.60
2022-10-13T12:10:33.609Z,26.23
2022-10-13T12:13:02.833Z,17.45
2022-10-13T12:15:36.283Z,20.10
2022-10-13T12:18:23.451Z,19.00
2022-10-13T12:20:56.612Z,23.92
2022-10-13T12:23:25.123Z,20.17
2022-10-13T12:25:58.312Z,15.88
2022-10-13T12:28:30.763Z,28.65
2022-10-13T12:31:01.063Z,20.05
2022-10-13T12:33:35.757Z,18.42
2022-10-13T12:36:17.722Z,21.33
2022-10-13T12:38:51.655Z,19.73
2022-10-13T12:41:26.623Z,23.92
2022-10-13T12:43:56.226Z,22.52
2022-10-13T12:46:41.052Z,23.73
2022-10-13T12:49:16.616Z,23.75
2022-10-13T12:51:49.279Z,20.75
2022-10-13T12:54:25.364Z,18.92
2022-10-13T12:56:58.634Z,21.60
2022-10-13T12:59:29.967Z,23.45
2022-10-13T13:02:01.719Z,22.70
2022-10-13T13:04:42.087Z,19.75
2022-10-13T13:07:32.494Z,21.05
2022-10-13T13:10:03.547Z,18.05
2022-10-13T13:12:32.623Z,22.05
2022-10-13T13:15:33.879Z,19.77
2022-10-13T13:18:31.526Z,24.40
2022-10-13T13:21:01.934Z,21.65
2022-10-13T13:23:34.273Z,19.50
2022-10-13T13:26:13.127Z,19.55
2022-10-13T13:28:47.323Z,23.77
2022-10-13T13:31:18.080Z,24.40
2022-10-13T13:33:47.219Z,24.67
2022-10-13T13:36:19.876Z,22.15
2022-10-13T13:38:48.743Z,23.95
2022-10-13T13:41:19.729Z,25.58
2022-10-13T13:43:48.096Z,23.60
2022-10-13T13:46:20.350Z,22.30
2022-10-13T13:48:48.644Z,24.08
2022-10-13T13:51:18.545Z,21.20
2022-10-13T13:53:47.516Z,22.08
2022-10-13T13:56:19.150Z,24.23
2022-10-13T13:58:47.962Z,22.58
2022-10-13T14:01:16.355Z,18.02
2022-10-13T14:03:45.194Z,22.30
2022-10-13T14:06:22.888Z,17.65
2022-10-13T14:08:51.745Z,20.42
2022-10-13T14:11:20.096Z,22.35
2022-10-13T14:13:48.304Z,22.88
2022-10-13T14:16:25.360Z,22.25
2022-10-13T14:18:55.557Z,24.10
2022-10-13T14:21:27.217Z,18.60
2022-10-13T14:23:58.652Z,20.27
2022-10-13T14:26:26.847Z,24.55
2022-10-13T14:28:54.980Z,23.10
2022-10-13T14:31:23.113Z,26.40
2022-10-13T14:33:54.282Z,24.33
2022-10-13T14:36:23.408Z,22.25
2022-10-13T14:38:54.136Z,19.15
2022-10-13T14:41:22.731Z,20.88
2022-10-13T14:43:54.888Z,21.98
2022-10-13T14:46:24.021Z,21.17
2022-10-13T14:48:52.273Z,19.33
2022-10-13T14:51:20.388Z,23.17
2022-10-13T14:53:48.564Z,23.60
2022-10-13T14:56:21.628Z,26.00
2022-10-13T14:58:59.067Z,22.95
2022-10-13T15:01:33.359Z,19.77
2022-10-13T15:04:02.064Z,21.05
2022-10-13T15:06:32.643Z,25.27
2022-10-13T15:09:01.246Z,23.23
2022-10-13T15:11:31.077Z,24.92
2022-10-13T15:14:01.202Z,23.13
2022-10-13T15:16:33.314Z,24.38
2022-10-13T15:19:01.531Z,23.73
2022-10-13T15:21:29.696Z,24.20
2022-10-13T15:23:58.056Z,20.65
2022-10-13T15:26:26.249Z,20.23
2022-10-13T15:28:55.722Z,21.17
2022-10-13T15:31:24.930Z,21.38
2022-10-13T15:33:55.210Z,21.42
2022-10-13T15:36:25.586Z,17.92
2022-10-13T15:38:53.874Z,21.40
2022-10-13T15:41:23.592Z,17.05
2022-10-13T15:43:52.111Z,16.38
2022-10-13T15:46:26.182Z,21.35
2022-10-13T15:48:55.611Z,18.60
2022-10-13T15:51:26.750Z,15.48
2022-10-13T15:53:55.787Z,18.02
2022-10-13T15:56:24.046Z,16.15
2022-10-13T15:58:52.151Z,20.75
2022-10-13T16:01:21.695Z,23.63
2022-10-13T16:03:54.397Z,16.77
2022-10-13T16:06:25.618Z,19.52
2022-10-13T16:08:54.693Z,20.20
2022-10-13T16:11:24.211Z,18.08
2022-10-13T16:13:53.485Z,17.23
2022-10-13T16:16:23.222Z,17.65
2022-10-13T16:18:51.834Z,17.52
2022-10-13T16:21:23.176Z,24.38
2022-10-13T16:23:51.414Z,22.08
2022-10-13T16:26:20.228Z,19.98
2022-10-13T16:28:49.181Z,22.35
2022-10-13T16:31:18.290Z,18.88
2022-10-13T16:33:49.995Z,21.05
2022-10-13T16:36:20.823Z,17.75
2022-10-13T16:38:55.592Z,17.98
2022-10-13T16:41:24.719Z,15.05
2022-10-13T16:43:53.017Z,19.67
2022-10-13T16:46:22.313Z,17.08
2022-10-13T16:48:51.994Z,21.30
2022-10-13T16:51:22.323Z,19.38
2022-10-13T16:53:52.949Z,20.38
2022-10-13T16:56:22.620Z,18.65
2022-10-13T16:58:52.017Z,16.60
2022-10-13T17:01:21.110Z,17.42
2022-10-13T17:03:52.655Z,20.83
2022-10-13T17:06:23.480Z,20.25
2022-10-13T17:08:56.368Z,19.73
2022-10-13T17:11:27.934Z,23.90
2022-10-13T17:14:00.700Z,19.95
2022-10-13T17:16:32.153Z,19.58
2022-10-13T17:19:01.884Z,20.80
2022-10-13T17:21:37.803Z,20.25
2022-10-13T17:24:08.844Z,20.85
2022-10-13T17:26:37.275Z,24.88
2022-10-13T17:29:05.776Z,25.35
2022-10-13T17:31:33.972Z,22.02
2022-10-13T17:34:03.492Z,20.95
2022-10-13T17:36:33.959Z,23.60
2022-10-13T17:39:11.901Z,21.50
2022-10-13T17:41:41.297Z,23.75
2022-10-13T17:44:10.366Z,24.10
2022-10-13T17:46:39.795Z,26.00
2022-10-13T17:49:13.219Z,20.10
2022-10-13T17:51:42.554Z,24.92
2022-10-13T17:54:16.068Z,29.20
2022-10-13T17:56:45.425Z,26.23
2022-10-13T17:59:14.299Z,31.45
2022-10-13T18:01:43.506Z,25.20
2022-10-13T18:04:15.202Z,31.55
2022-10-13T18:06:44.872Z,27.85
2022-10-13T18:09:18.161Z,32.92
2022-10-13T18:11:51.010Z,33.55
2022-10-13T18:14:20.199Z,25.75
2022-10-13T18:16:50.860Z,28.40
2022-10-13T18:19:21.257Z,26.77
2022-10-13T18:21:50.567Z,34.90
2022-10-13T18:24:18.793Z,35.60
2022-10-13T18:26:47.310Z,33.83
2022-10-13T18:29:15.885Z,39.22
2022-10-13T18:31:44.602Z,35.90
2022-10-13T18:34:16.912Z,35.33
2022-10-13T18:36:49.138Z,31.17
2022-10-13T18:39:20.065Z,33.58
2022-10-13T18:41:50.217Z,36.25
2022-10-13T18:44:18.790Z,36.67
2022-10-13T18:46:50.940Z,29.92
2022-10-13T18:49:23.028Z,34.50
2022-10-13T18:51:53.112Z,30.35
2022-10-13T18:54:21.415Z,37.70
2022-10-13T18:56:49.764Z,34.13
2022-10-13T18:59:18.015Z,33.88
2022-10-13T19:01:46.352Z,34.42
2022-10-13T19:04:16.771Z,31.92
2022-10-13T19:06:46.362Z,35.90
2022-10-13T19:09:18.959Z,37.97
2022-10-13T19:11:47.168Z,36.92
2022-10-13T19:14:20.691Z,33.40
2022-10-13T19:16:49.558Z,33.80
2022-10-13T19:19:17.719Z,34.60
2022-10-13T19:21:45.914Z,35.83
2022-10-13T19:24:15.930Z,36.03
2022-10-13T19:26:44.242Z,38.20
2022-10-13T19:29:16.071Z,37.92
2022-10-13T19:31:44.946Z,38.15
2022-10-13T19:34:14.542Z,38.13
2022-10-13T19:36:45.354Z,44.63
2022-10-13T19:39:19.865Z,38.58
2022-10-13T19:41:50.666Z,47.65
2022-10-13T19:44:21.043Z,40.53
2022-10-13T19:46:50.274Z,33.50
2022-10-13T19:49:22.035Z,37.35
2022-10-13T19:51:53.793Z,42.10
2022-10-13T19:54:24.186Z,37.85
2022-10-13T19:56:53.719Z,40.65
2022-10-13T19:59:22.087Z,43.05
2022-10-13T20:01:50.408Z,38.17
2022-10-13T20:04:20.374Z,39.03
2022-10-13T20:06:49.264Z,43.00
2022-10-13T20:09:18.311Z,39.13
2022-10-13T20:11:49.764Z,42.03
2022-10-13T20:14:18.845Z,41.08
2022-10-13T20:16:47.329Z,37.97
2022-10-13T20:19:19.338Z,40.13
2022-10-13T20:21:51.535Z,38.17
2022-10-13T20:24:21.546Z,45.33
2022-10-13T20:26:51.324Z,45.50
2022-10-13T20:29:24.305Z,44.60
2022-10-13T20:31:52.538Z,46.30
2022-10-13T20:34:20.635Z,44.40
2022-10-13T20:36:51.852Z,47.40
2022-10-13T20:39:20.483Z,44.30
2022-10-13T20:41:50.067Z,40.17
2022-10-13T20:44:18.685Z,39.70
2022-10-13T20:46:46.772Z,43.90
2022-10-13T20:49:14.970Z,42.30
2022-10-13T20:51:44.772Z,44.58
2022-10-13T20:54:15.213Z,44.28
2022-10-13T20:56:44.378Z,49.08
2022-10-13T20:59:15.520Z,44.90
2022-10-13T21:01:43.963Z,48.00
2022-10-13T21:04:12.194Z,43.35
2022-10-13T21:06:41.977Z,44.10
2022-10-13T21:09:11.052Z,45.65
2022-10-13T21:11:41.639Z,41.67
2022-10-13T21:14:10.364Z,51.25
2022-10-13T21:16:40.625Z,48.25
2022-10-13T21:19:12.810Z,49.38
2022-10-13T21:21:41.366Z,47.33
2022-10-13T21:24:11.363Z,48.67
2022-10-13T21:26:42.161Z,43.03
2022-10-13T21:29:14.927Z,52.00
2022-10-13T21:31:44.489Z,45.20
2022-10-13T21:34:13.941Z,50.83
2022-10-13T21:36:44.434Z,51.78
2022-10-13T21:39:15.125Z,47.60
2022-10-13T21:41:43.586Z,49.35
2022-10-13T21:44:14.227Z,51.33
2022-10-13T21:46:44.176Z,44.00
2022-10-13T21:49:12.374Z,52.33
2022-10-13T21:51:41.339Z,50.47
2022-10-13T21:54:12.585Z,49.90
2022-10-13T21:56:42.099Z,49.20
2022-10-13T21:59:12.911Z,49.95
2022-10-13T22:01:41.627Z,51.17
2022-10-13T22:04:15.057Z,49.50
2022-10-13T22:06:44.526Z,50.50
2022-10-13T22:09:13.458Z,51.28
2022-10-13T22:11:42.378Z,50.97
2022-10-13T22:14:13.859Z,54.95
2022-10-13T22:16:44.933Z,49.30
2022-10-13T22:19:16.732Z,49.25
2022-10-13T22:21:47.414Z,51.92
2022-10-13T22:24:19.054Z,47.67
2022-10-13T22:26:50.135Z,45.70
2022-10-13T22:29:21.695Z,43.15
2022-10-13T22:31:50.599Z,47.65
2022-10-13T22:34:20.167Z,48.80
2022-10-13T22:36:48.499Z,47.85
2022-10-13T22:39:17.104Z,50.72
2022-10-13T22:41:46.108Z,43.63
2022-10-13T22:44:14.858Z,48.90
2022-10-13T22:46:43.340Z,42.72
2022-10-13T22:49:14.734Z,51.90
2022-10-13T22:51:44.354Z,52.47
2022-10-13T22:54:13.785Z,46.70
2022-10-13T22:56:43.088Z,49.78
2022-10-13T22:59:13.854Z,44.70
2022-10-13T23:01:42.229Z,46.72
2022-10-13T23:04:10.601Z,43.15
2022-10-13T23:06:39.179Z,47.08
2022-10-13T23:09:13.243Z,49.35
2022-10-13T23:11:41.948Z,45.85
2022-10-13T23:14:12.373Z,46.08
2022-10-13T23:16:40.718Z,42.35
2022-10-13T23:19:08.849Z,47.80
2022-10-13T23:21:37.135Z,46.58
2022-10-13T23:24:08.615Z,43.15
2022-10-13T23:26:37.018Z,42.67
2022-10-13T23:29:05.754Z,48.15
2022-10-13T23:31:34.046Z,45.33
2022-10-13T23:34:02.187Z,45.92
2022-10-13T23:36:32.634Z,49.67
2022-10-13T23:39:03.765Z,46.70
2022-10-13T23:41:34.166Z,45.05
2022-10-13T23:44:02.369Z,43.70
2022-10-13T23:46:30.736Z,49.17
2022-10-13T23:48:58.995Z,51.13
2022-10-13T23:51:27.224Z,51.80
2022-10-13T23:53:56.466Z,54.60
2022-10-13T23:56:25.226Z,48.42
2022-10-13T23:58:54.963Z,46.40
